Time,TemperatureF,DewpointF,PressureIn,WindDirection,WindDirectionDegrees,WindSpeedMPH,WindSpeedGustMPH,Humidity,HourlyPrecipIn,Conditions,Clouds,dailyrainin,SolarRadiationWatts/m^2,SoftwareType,DateUTC
2013-06-01 00:01:00,76.2,73.1,29.98,SE,134,2.0,5.0,90,0.00,,-RA,0.03,0.00,VWS V14.00,2013-06-01 04:01:00,
2013-06-01 00:02:00,76.2,73.1,29.98,SE,134,0.0,3.0,90,0.00,,-RA,0.00,0.00,VWS V14.00,2013-06-01 04:02:00,
2013-06-01 00:07:00,76.2,73.1,29.98,SE,136,6.0,9.0,90,0.00,,-RA,0.00,0.00,VWS V14.00,2013-06-01 04:07:00,
2013-06-01 00:12:00,76.3,73.2,29.98,SE,140,5.0,6.0,90,0.00,,-RA,0.00,0.00,VWS V14.00,2013-06-01 04:12:00,
2013-06-01 00:17:00,76.4,73.2,29.98,SE,142,3.0,7.0,90,0.00,,-RA,0.00,0.00,VWS V14.00,2013-06-01 04:17:00,
2013-06-01 00:22:00,76.5,73.3,29.98,SSE,155,7.0,12.0,90,0.00,,-RA,0.00,0.00,VWS V14.00,2013-06-01 04:22:00,
2013-06-01 00:27:00,76.6,73.4,29.97,SSE,160,3.0,7.0,90,0.00,,-RA,0.00,0.00,VWS V14.00,2013-06-01 04:27:00,
2013-06-01 00:32:00,76.5,73.3,29.97,SSE,165,2.0,4.0,90,0.00,,-RA,0.00,0.00,VWS V14.00,2013-06-01 04:32:00,
2013-06-01 00:37:00,76.4,73.2,29.97,SSE,165,4.0,7.0,90,0.00,,-RA,0.00,0.00,VWS V14.00,2013-06-01 04:37:00,
2013-06-01 00:42:00,76.3,72.8,29.97,SSE,165,10.0,10.0,89,0.00,,-RA,0.00,0.00,VWS V14.00,2013-06-01 04:42:00,
2013-06-01 00:47:00,76.2,72.7,29.97,SSE,163,6.0,10.0,89,0.00,,-RA,0.00,0.00,VWS V14.00,2013-06-01 04:47:00,
2013-06-01 00:52:00,76.3,72.8,29.97,SSE,162,4.0,5.0,89,0.00,,-RA,0.00,0.00,VWS V14.00,2013-06-01 04:52:00,
2013-06-01 00:57:00,76.3,72.8,29.97,SSE,161,5.0,6.0,89,0.00,,-RA,0.00,0.00,VWS V14.00,2013-06-01 04:57:00,
2013-06-01 01:02:00,76.4,72.9,29.97,SSE,159,4.0,9.0,89,0.00,,-RA,0.00,0.00,VWS V14.00,2013-06-01 05:02:00,
2013-06-01 01:07:00,76.4,72.9,29.97,SSE,161,5.0,10.0,89,0.00,,-RA,0.00,0.00,VWS V14.00,2013-06-01 05:07:00,
2013-06-01 01:12:00,76.5,73.0,29.97,SSE,161,2.0,2.0,89,0.00,,-RA,0.00,0.00,VWS V14.00,2013-06-01 05:12:00,
2013-06-01 01:17:00,76.4,72.9,29.96,SSE,159,5.0,9.0,89,0.00,,-RA,0.00,0.00,VWS V14.00,2013-06-01 05:17:00,
2013-06-01 01:22:00,76.4,72.9,29.96,SSE,159,5.0,6.0,89,0.00,,-RA,0.00,0.00,VWS V14.00,2013-06-01 05:22:00,
2013-06-01 01:27:00,76.3,72.8,29.96,SSE,159,0.0,4.0,89,0.00,,-RA,0.00,0.00,VWS V14.00,2013-06-01 05:27:00,
2013-06-01 01:32:00,76.2,72.7,29.96,SSE,165,3.0,6.0,89,0.00,,-RA,0.00,0.00,VWS V14.00,2013-06-01 05:32:00,
2013-06-01 01:37:00,76.1,72.6,29.96,SSE,165,5.0,7.0,89,0.00,,-RA,0.00,0.00,VWS V14.00,2013-06-01 05:37:00,
2013-06-01 01:42:00,76.0,72.5,29.96,SSE,165,0.0,4.0,89,0.00,,-RA,0.00,0.00,VWS V14.00,2013-06-01 05:42:00,
2013-06-01 01:47:00,76.0,72.5,29.96,SSE,165,5.0,5.0,89,0.00,,-RA,0.00,0.00,VWS V14.00,2013-06-01 05:47:00,
2013-06-01 01:52:00,75.9,72.4,29.96,SSE,165,4.0,4.0,89,0.00,,-RA,0.00,0.00,VWS V14.00,2013-06-01 05:52:00,
2013-06-01 01:57:00,75.9,72.4,29.95,SSE,165,1.0,4.0,89,0.00,,-RA,0.00,0.00,VWS V14.00,2013-06-01 05:57:00,
2013-06-01 02:02:00,75.8,72.3,29.95,SSE,165,7.0,7.0,89,0.00,,-RA,0.00,0.00,VWS V14.00,2013-06-01 06:02:00,
2013-06-01 02:07:00,75.9,72.4,29.95,SSE,165,5.0,9.0,89,0.00,,-RA,0.00,0.00,VWS V14.00,2013-06-01 06:07:00,
2013-06-01 02:12:00,75.9,72.4,29.95,South,182,4.0,6.0,89,0.00,,-RA,0.00,0.00,VWS V14.00,2013-06-01 06:12:00,
2013-06-01 02:17:00,75.8,72.3,29.95,South,175,6.0,9.0,89,0.00,,-RA,0.00,0.00,VWS V14.00,2013-06-01 06:17:00,
2013-06-01 02:22:00,75.6,72.1,29.94,South,176,4.0,6.0,89,0.00,,-RA,0.00,0.00,VWS V14.00,2013-06-01 06:22:00,
2013-06-01 02:27:00,75.3,71.8,29.94,South,177,5.0,6.0,89,0.00,,-RA,0.00,0.00,VWS V14.00,2013-06-01 06:27:00,
2013-06-01 02:32:00,75.0,71.5,29.94,South,183,3.0,3.0,89,0.00,,-RA,0.00,0.00,VWS V14.00,2013-06-01 06:32:00,
2013-06-01 02:37:00,74.9,71.4,29.93,South,183,0.0,0.0,89,0.00,,-RA,0.00,0.00,VWS V14.00,2013-06-01 06:37:00,
2013-06-01 02:42:00,74.8,71.3,29.93,South,183,0.0,0.0,89,0.00,,-RA,0.00,0.00,VWS V14.00,2013-06-01 06:42:00,
2013-06-01 02:47:00,74.8,71.7,29.93,South,183,0.0,0.0,90,0.00,,-RA,0.00,0.00,VWS V14.00,2013-06-01 06:47:00,
2013-06-01 02:52:00,74.8,71.7,29.93,South,183,0.0,0.0,90,0.00,,-RA,0.00,0.00,VWS V14.00,2013-06-01 06:52:00,
2013-06-01 02:57:00,74.8,71.7,29.93,South,183,0.0,1.0,90,0.00,,-RA,0.00,0.00,VWS V14.00,2013-06-01 06:57:00,
2013-06-01 03:02:00,74.8,71.7,29.93,South,183,2.0,2.0,90,0.00,,-RA,0.00,0.00,VWS V14.00,2013-06-01 07:02:00,
2013-06-01 03:08:00,74.9,71.8,29.93,South,183,0.0,0.0,90,0.00,,-RA,0.00,0.00,VWS V14.00,2013-06-01 07:08:00,
2013-06-01 03:13:00,74.9,71.8,29.93,South,183,0.0,0.0,90,0.00,,-RA,0.00,0.00,VWS V14.00,2013-06-01 07:13:00,
2013-06-01 03:18:00,75.0,71.9,29.93,South,183,0.0,0.0,90,0.00,,-RA,0.00,0.00,VWS V14.00,2013-06-01 07:18:00,
2013-06-01 03:23:00,75.1,72.0,29.93,South,183,0.0,0.0,90,0.00,,-RA,0.00,0.00,VWS V14.00,2013-06-01 07:23:00,
2013-06-01 03:28:00,75.2,72.1,29.93,South,183,0.0,0.0,90,0.00,,-RA,0.00,0.00,VWS V14.00,2013-06-01 07:28:00,
2013-06-01 03:33:00,75.3,72.2,29.93,South,183,0.0,0.0,90,0.00,,-RA,0.00,0.00,VWS V14.00,2013-06-01 07:33:00,
2013-06-01 03:38:00,75.2,72.1,29.93,South,183,0.0,0.0,90,0.00,,-RA,0.00,0.00,VWS V14.00,2013-06-01 07:38:00,
2013-06-01 03:43:00,75.2,72.1,29.93,South,183,0.0,0.0,90,0.00,,-RA,0.00,0.00,VWS V14.00,2013-06-01 07:43:00,
2013-06-01 03:48:00,75.1,72.0,29.93,South,183,0.0,0.0,90,0.00,,-RA,0.00,0.00,VWS V14.00,2013-06-01 07:48:00,
2013-06-01 03:53:00,75.0,71.9,29.93,South,183,0.0,0.0,90,0.00,,-RA,0.00,0.00,VWS V14.00,2013-06-01 07:53:00,
2013-06-01 03:58:00,75.0,71.9,29.93,South,183,0.0,0.0,90,0.00,,-RA,0.00,0.00,VWS V14.00,2013-06-01 07:58:00,
2013-06-01 04:03:00,74.9,71.8,29.92,South,183,0.0,0.0,90,0.00,,-RA,0.00,0.00,VWS V14.00,2013-06-01 08:03:00,
2013-06-01 04:08:00,74.9,71.8,29.92,South,183,0.0,0.0,90,0.00,,-RA,0.00,0.00,VWS V14.00,2013-06-01 08:08:00,
2013-06-01 04:13:00,75.0,71.9,29.92,South,183,0.0,0.0,90,0.00,,-RA,0.00,0.00,VWS V14.00,2013-06-01 08:13:00,
2013-06-01 04:18:00,75.2,72.1,29.92,South,183,0.0,0.0,90,0.00,,-RA,0.01,0.00,VWS V14.00,2013-06-01 08:18:00,
2013-06-01 04:23:00,75.2,72.1,29.92,South,183,0.0,0.0,90,0.00,,-RA,0.01,0.00,VWS V14.00,2013-06-01 08:23:00,
2013-06-01 04:28:00,75.2,72.1,29.92,South,183,0.0,0.0,90,0.00,,-RA,0.01,0.00,VWS V14.00,2013-06-01 08:28:00,
2013-06-01 04:33:00,75.2,72.1,29.92,South,183,0.0,0.0,90,0.00,,-RA,0.01,0.00,VWS V14.00,2013-06-01 08:33:00,
2013-06-01 04:38:00,75.1,72.0,29.91,South,183,0.0,0.0,90,0.00,,-RA,0.01,0.00,VWS V14.00,2013-06-01 08:38:00,
2013-06-01 04:43:00,75.1,72.0,29.92,South,183,0.0,0.0,90,0.00,,-RA,0.01,0.00,VWS V14.00,2013-06-01 08:43:00,
2013-06-01 04:48:00,75.1,72.0,29.92,South,183,1.0,2.0,90,0.00,,-RA,0.01,0.00,VWS V14.00,2013-06-01 08:48:00,
2013-06-01 04:53:00,75.2,72.1,29.91,South,183,0.0,0.0,90,0.00,,-RA,0.01,0.00,VWS V14.00,2013-06-01 08:53:00,
2013-06-01 04:58:00,75.2,72.1,29.91,South,183,0.0,0.0,90,0.00,,-RA,0.01,0.00,VWS V14.00,2013-06-01 08:58:00,
2013-06-01 05:03:00,75.2,72.1,29.91,South,183,0.0,0.0,90,0.00,,-RA,0.01,0.00,VWS V14.00,2013-06-01 09:03:00,
2013-06-01 05:08:00,75.2,72.1,29.91,South,183,0.0,0.0,90,0.00,,-RA,0.01,0.00,VWS V14.00,2013-06-01 09:08:00,
2013-06-01 05:13:00,75.3,72.2,29.91,South,183,0.0,0.0,90,0.00,,-RA,0.01,0.00,VWS V14.00,2013-06-01 09:13:00,
2013-06-01 05:18:00,75.3,72.2,29.91,South,183,0.0,0.0,90,0.00,,-RA,0.01,0.00,VWS V14.00,2013-06-01 09:18:00,
2013-06-01 05:23:00,75.1,72.0,29.91,South,183,0.0,0.0,90,0.00,,-RA,0.01,0.00,VWS V14.00,2013-06-01 09:23:00,
2013-06-01 05:28:00,75.0,71.9,29.92,South,183,0.0,0.0,90,0.00,,-RA,0.01,0.00,VWS V14.00,2013-06-01 09:28:00,
2013-06-01 05:33:00,75.1,72.0,29.92,South,183,0.0,0.0,90,0.00,,-RA,0.01,0.00,VWS V14.00,2013-06-01 09:33:00,
2013-06-01 05:38:00,75.0,71.9,29.92,South,183,0.0,0.0,90,0.00,,-RA,0.01,0.00,VWS V14.00,2013-06-01 09:38:00,
2013-06-01 05:43:00,75.0,71.9,29.92,South,183,0.0,0.0,90,0.00,,-RA,0.01,0.00,VWS V14.00,2013-06-01 09:43:00,
2013-06-01 05:48:00,74.9,71.8,29.92,South,183,0.0,0.0,90,0.00,,-RA,0.01,0.00,VWS V14.00,2013-06-01 09:48:00,
2013-06-01 05:53:00,74.9,71.8,29.92,South,183,0.0,1.0,90,0.00,,-RA,0.01,0.00,VWS V14.00,2013-06-01 09:53:00,
2013-06-01 05:58:00,74.9,71.8,29.92,South,183,0.0,0.0,90,0.00,,-RA,0.01,0.00,VWS V14.00,2013-06-01 09:58:00,
2013-06-01 06:03:00,75.0,71.9,29.93,South,183,0.0,0.0,90,0.00,,-RA,0.01,0.00,VWS V14.00,2013-06-01 10:03:00,
2013-06-01 06:08:00,75.1,72.0,29.93,South,183,0.0,0.0,90,0.00,,-RA,0.01,0.00,VWS V14.00,2013-06-01 10:08:00,
2013-06-01 06:13:00,75.0,71.9,29.93,South,183,0.0,0.0,90,0.00,,-RA,0.01,0.00,VWS V14.00,2013-06-01 10:13:00,
2013-06-01 06:18:00,75.1,72.0,29.93,South,183,0.0,0.0,90,0.00,,-RA,0.01,0.00,VWS V14.00,2013-06-01 10:18:00,
2013-06-01 06:23:00,75.0,72.2,29.93,South,183,0.0,0.0,91,0.00,,-RA,0.01,0.00,VWS V14.00,2013-06-01 10:23:00,
2013-06-01 06:28:00,75.0,72.2,29.93,South,183,0.0,0.0,91,0.00,,-RA,0.01,0.00,VWS V14.00,2013-06-01 10:28:00,
2013-06-01 06:33:00,75.1,72.3,29.94,South,183,0.0,0.0,91,0.00,,-RA,0.01,0.00,VWS V14.00,2013-06-01 10:33:00,
2013-06-01 06:38:00,75.1,72.3,29.94,South,183,0.0,0.0,91,0.00,,-RA,0.01,0.00,VWS V14.00,2013-06-01 10:38:00,
2013-06-01 06:43:00,75.0,72.2,29.94,South,183,0.0,0.0,91,0.00,,-RA,0.01,5.00,VWS V14.00,2013-06-01 10:43:00,
2013-06-01 06:48:00,75.1,72.3,29.94,South,183,0.0,0.0,91,0.00,,-RA,0.01,9.00,VWS V14.00,2013-06-01 10:48:00,
2013-06-01 06:53:00,75.3,72.2,29.94,South,183,0.0,0.0,90,0.00,,-RA,0.01,11.00,VWS V14.00,2013-06-01 10:53:00,
2013-06-01 06:58:00,75.3,72.2,29.94,South,183,0.0,0.0,90,0.00,,-RA,0.01,12.00,VWS V14.00,2013-06-01 10:58:00,
2013-06-01 07:03:00,75.5,72.4,29.94,South,182,0.0,0.0,90,0.00,,-RA,0.01,14.00,VWS V14.00,2013-06-01 11:03:00,
2013-06-01 07:08:00,75.5,72.4,29.94,South,182,0.0,0.0,90,0.00,,-RA,0.01,26.00,VWS V14.00,2013-06-01 11:08:00,
2013-06-01 07:13:00,75.6,72.8,29.94,South,182,0.0,0.0,91,0.00,,-RA,0.01,25.00,VWS V14.00,2013-06-01 11:13:00,
2013-06-01 07:18:00,75.7,72.9,29.95,South,182,0.0,0.0,91,0.00,,-RA,0.01,23.00,VWS V14.00,2013-06-01 11:18:00,
2013-06-01 07:23:00,75.8,73.0,29.95,South,179,0.0,0.0,91,0.00,,-RA,0.01,30.00,VWS V14.00,2013-06-01 11:23:00,
2013-06-01 07:28:00,76.0,72.9,29.95,South,179,0.0,0.0,90,0.00,,-RA,0.01,67.00,VWS V14.00,2013-06-01 11:28:00,
2013-06-01 07:33:00,76.1,73.0,29.95,South,179,0.0,0.0,90,0.00,,-RA,0.01,42.00,VWS V14.00,2013-06-01 11:33:00,
2013-06-01 07:38:00,76.3,73.5,29.95,South,179,0.0,0.0,91,0.00,,-RA,0.01,40.00,VWS V14.00,2013-06-01 11:38:00,
2013-06-01 07:43:00,76.5,73.7,29.95,South,179,0.0,0.0,91,0.00,,-RA,0.01,39.00,VWS V14.00,2013-06-01 11:43:00,
2013-06-01 07:48:00,76.6,73.4,29.95,South,179,0.0,1.0,90,0.00,,-RA,0.01,40.00,VWS V14.00,2013-06-01 11:48:00,
2013-06-01 07:53:00,76.7,73.6,29.96,South,186,3.0,3.0,90,0.00,,-RA,0.01,40.00,VWS V14.00,2013-06-01 11:53:00,
2013-06-01 07:58:00,76.7,73.6,29.96,South,186,0.0,1.0,90,0.00,,-RA,0.01,23.00,VWS V14.00,2013-06-01 11:58:00,
2013-06-01 08:03:00,76.6,73.4,29.96,South,183,5.0,9.0,90,0.00,,-RA,0.01,28.00,VWS V14.00,2013-06-01 12:03:00,
2013-06-01 08:08:00,76.6,73.4,29.96,South,180,5.0,6.0,90,0.00,,-RA,0.01,42.00,VWS V14.00,2013-06-01 12:08:00,
2013-06-01 08:13:00,76.8,73.7,29.96,South,175,2.0,3.0,90,0.00,,-RA,0.01,51.00,VWS V14.00,2013-06-01 12:13:00,
2013-06-01 08:18:00,76.8,73.7,29.96,SSE,167,4.0,7.0,90,0.00,,-RA,0.01,54.00,VWS V14.00,2013-06-01 12:18:00,
2013-06-01 08:23:00,76.7,73.6,29.96,SSE,158,5.0,5.0,90,0.00,,-RA,0.01,104.00,VWS V14.00,2013-06-01 12:23:00,
2013-06-01 08:28:00,76.7,73.6,29.96,SSE,158,4.0,4.0,90,0.00,,-RA,0.01,105.00,VWS V14.00,2013-06-01 12:28:00,
2013-06-01 08:33:00,76.8,73.7,29.96,SSE,153,3.0,6.0,90,0.00,,-RA,0.01,221.00,VWS V14.00,2013-06-01 12:33:00,
2013-06-01 08:38:00,77.2,74.0,29.96,SSE,153,0.0,2.0,90,0.00,,-RA,0.01,207.00,VWS V14.00,2013-06-01 12:38:00,
2013-06-01 08:44:00,77.3,74.1,29.96,SSE,150,3.0,5.0,90,0.00,,-RA,0.01,183.00,VWS V14.00,2013-06-01 12:44:00,
2013-06-01 08:49:00,77.5,74.0,29.96,SE,131,1.0,6.0,89,0.00,,-RA,0.01,186.00,VWS V14.00,2013-06-01 12:49:00,
2013-06-01 08:54:00,77.8,74.3,29.96,SE,130,4.0,6.0,89,0.00,,-RA,0.01,188.00,VWS V14.00,2013-06-01 12:54:00,
2013-06-01 08:59:00,78.2,74.7,29.96,SE,130,4.0,4.0,89,0.00,,-RA,0.01,185.00,VWS V14.00,2013-06-01 12:59:00,
2013-06-01 09:04:00,78.7,74.8,29.96,SE,130,4.0,4.0,88,0.00,,-RA,0.01,186.00,VWS V14.00,2013-06-01 13:04:00,
2013-06-01 09:09:00,79.2,75.0,29.96,ESE,118,3.0,9.0,87,0.00,,-RA,0.01,171.00,VWS V14.00,2013-06-01 13:09:00,
2013-06-01 09:14:00,79.7,75.5,29.96,SE,132,5.0,9.0,87,0.00,,-RA,0.01,188.00,VWS V14.00,2013-06-01 13:14:00,
2013-06-01 09:19:00,80.1,75.5,29.96,SE,129,6.0,10.0,86,0.00,,-RA,0.01,207.00,VWS V14.00,2013-06-01 13:19:00,
2013-06-01 09:24:00,80.5,75.9,29.96,ESE,122,6.0,6.0,86,0.00,,-RA,0.01,214.00,VWS V14.00,2013-06-01 13:24:00,
2013-06-01 09:29:00,80.6,75.7,29.96,ESE,112,6.0,10.0,85,0.00,,-RA,0.01,218.00,VWS V14.00,2013-06-01 13:29:00,
2013-06-01 09:34:00,80.7,75.8,29.96,ESE,115,9.0,10.0,85,0.00,,-RA,0.01,207.00,VWS V14.00,2013-06-01 13:34:00,
2013-06-01 09:39:00,80.9,76.0,29.97,ESE,115,5.0,6.0,85,0.00,,-RA,0.01,214.00,VWS V14.00,2013-06-01 13:39:00,
2013-06-01 09:44:00,81.2,76.3,29.97,SE,145,9.0,9.0,85,0.00,,-RA,0.01,246.00,VWS V14.00,2013-06-01 13:44:00,
2013-06-01 09:49:00,81.5,76.2,29.97,SE,142,4.0,8.0,84,0.00,,-RA,0.01,255.00,VWS V14.00,2013-06-01 13:49:00,
2013-06-01 09:54:00,81.8,75.8,29.97,SE,136,10.0,12.0,82,0.00,,-RA,0.01,171.00,VWS V14.00,2013-06-01 13:54:00,
2013-06-01 09:59:00,82.0,76.0,29.97,SSE,152,4.0,11.0,82,0.00,,-RA,0.01,262.00,VWS V14.00,2013-06-01 13:59:00,
2013-06-01 10:04:00,82.1,75.7,29.97,SSE,150,10.0,10.0,81,0.00,,-RA,0.01,97.00,VWS V14.00,2013-06-01 14:04:00,
2013-06-01 10:09:00,81.9,75.5,29.97,SSE,150,6.0,6.0,81,0.00,,-RA,0.01,81.00,VWS V14.00,2013-06-01 14:09:00,
2013-06-01 10:14:00,81.8,75.4,29.97,SSE,155,6.0,10.0,81,0.00,,-RA,0.01,76.00,VWS V14.00,2013-06-01 14:14:00,
2013-06-01 10:19:00,81.5,75.5,29.97,SSE,155,4.0,7.0,82,0.00,,-RA,0.01,74.00,VWS V14.00,2013-06-01 14:19:00,
2013-06-01 10:24:00,81.3,75.3,29.97,South,169,4.0,7.0,82,0.00,,-RA,0.01,76.00,VWS V14.00,2013-06-01 14:24:00,
2013-06-01 10:29:00,81.2,74.8,29.97,SSE,159,4.0,11.0,81,0.00,,-RA,0.01,74.00,VWS V14.00,2013-06-01 14:29:00,
2013-06-01 10:34:00,81.1,75.1,29.97,SSE,158,5.0,6.0,82,0.00,,-RA,0.01,79.00,VWS V14.00,2013-06-01 14:34:00,
2013-06-01 10:39:00,81.3,75.3,29.97,SSE,164,5.0,9.0,82,0.00,,SCT026,0.01,98.00,VWS V14.00,2013-06-01 14:39:00,
2013-06-01 10:44:00,81.4,75.4,29.97,SSE,148,11.0,11.0,82,0.00,,SCT026,0.01,86.00,VWS V14.00,2013-06-01 14:44:00,
2013-06-01 10:49:00,81.6,75.2,29.97,SSE,147,4.0,9.0,81,0.00,,SCT026,0.01,102.00,VWS V14.00,2013-06-01 14:49:00,
2013-06-01 10:54:00,81.6,75.2,29.97,SSE,163,6.0,7.0,81,0.00,,SCT026,0.01,98.00,VWS V14.00,2013-06-01 14:54:00,
2013-06-01 10:59:00,81.6,75.2,29.97,SSE,162,4.0,6.0,81,0.00,,SCT026,0.01,107.00,VWS V14.00,2013-06-01 14:59:00,
2013-06-01 11:04:00,81.7,74.9,29.97,SSE,152,4.0,8.0,80,0.00,,SCT026,0.01,114.00,VWS V14.00,2013-06-01 15:04:00,
2013-06-01 11:09:00,81.8,75.0,29.97,SSE,155,4.0,11.0,80,0.00,,SCT026,0.01,125.00,VWS V14.00,2013-06-01 15:09:00,
2013-06-01 11:15:00,82.0,75.6,29.97,SSE,151,0.0,6.0,81,0.00,,SCT026,0.01,137.00,VWS V14.00,2013-06-01 15:15:00,
2013-06-01 11:20:00,82.1,75.3,29.97,South,172,0.0,8.0,80,0.00,,SCT026,0.01,120.00,VWS V14.00,2013-06-01 15:20:00,
2013-06-01 11:25:00,82.1,75.7,29.97,SSE,168,6.0,7.0,81,0.00,,SCT026,0.01,128.00,VWS V14.00,2013-06-01 15:25:00,
2013-06-01 11:30:00,82.0,75.2,29.97,SSE,161,6.0,10.0,80,0.00,,SCT026,0.01,144.00,VWS V14.00,2013-06-01 15:30:00,
2013-06-01 11:35:00,81.9,75.1,29.97,SSE,162,7.0,10.0,80,0.00,,SCT026,0.01,148.00,VWS V14.00,2013-06-01 15:35:00,
2013-06-01 11:40:00,82.0,74.8,29.97,SSE,157,8.0,9.0,79,0.00,,OVC040,0.01,155.00,VWS V14.00,2013-06-01 15:40:00,
2013-06-01 11:45:00,82.0,74.5,29.97,SSE,157,7.0,9.0,78,0.00,,OVC040,0.01,141.00,VWS V14.00,2013-06-01 15:45:00,
2013-06-01 11:50:00,82.2,74.7,29.97,SSE,152,3.0,7.0,78,0.00,,OVC040,0.01,109.00,VWS V14.00,2013-06-01 15:50:00,
2013-06-01 11:55:00,82.4,75.2,29.97,South,173,5.0,11.0,79,0.00,,OVC040,0.01,105.00,VWS V14.00,2013-06-01 15:55:00,
2013-06-01 12:00:00,82.5,76.1,29.97,SSW,202,7.0,10.0,81,0.00,,OVC040,0.01,128.00,VWS V14.00,2013-06-01 16:00:00,
2013-06-01 12:05:00,81.9,76.2,29.97,SSW,198,7.0,7.0,83,0.00,,OVC040,0.01,123.00,VWS V14.00,2013-06-01 16:05:00,
2013-06-01 12:10:00,81.5,75.8,29.97,SW,217,0.0,6.0,83,0.00,,OVC040,0.01,107.00,VWS V14.00,2013-06-01 16:10:00,
2013-06-01 12:15:00,81.4,76.1,29.97,SW,215,4.0,7.0,84,0.00,,OVC040,0.01,186.00,VWS V14.00,2013-06-01 16:15:00,
2013-06-01 12:20:00,81.5,76.6,29.97,SW,215,0.0,4.0,85,0.00,,OVC040,0.01,306.00,VWS V14.00,2013-06-01 16:20:00,
2013-06-01 12:25:00,81.8,76.8,29.96,SW,215,3.0,8.0,85,0.00,,OVC040,0.01,113.00,VWS V14.00,2013-06-01 16:25:00,
2013-06-01 12:30:00,81.6,75.6,29.96,SSE,157,8.0,15.0,82,0.00,,OVC040,0.01,142.00,VWS V14.00,2013-06-01 16:30:00,
2013-06-01 12:35:00,81.1,75.1,29.96,East,101,9.0,12.0,82,0.00,,OVC040,0.01,257.00,VWS V14.00,2013-06-01 16:35:00,
2013-06-01 12:40:00,81.1,75.1,29.96,ESE,120,10.0,18.0,82,0.00,,SCT019,0.01,149.00,VWS V14.00,2013-06-01 16:40:00,
2013-06-01 12:45:00,80.5,75.2,29.96,SE,126,5.0,12.0,84,0.00,,SCT019,0.01,120.00,VWS V14.00,2013-06-01 16:45:00,
2013-06-01 12:50:00,80.1,75.2,29.96,ESE,123,6.0,11.0,85,0.00,,SCT019,0.01,118.00,VWS V14.00,2013-06-01 16:50:00,
2013-06-01 12:55:00,79.8,75.2,29.96,ESE,120,7.0,11.0,86,0.00,,SCT019,0.01,105.00,VWS V14.00,2013-06-01 16:55:00,
2013-06-01 13:00:00,79.6,75.4,29.96,ESE,123,7.0,11.0,87,0.00,,SCT019,0.01,93.00,VWS V14.00,2013-06-01 17:00:00,
2013-06-01 13:05:00,79.4,75.2,29.96,ESE,114,5.0,10.0,87,0.00,,SCT019,0.01,86.00,VWS V14.00,2013-06-01 17:05:00,
2013-06-01 13:10:00,79.3,75.1,29.95,ESE,122,3.0,9.0,87,0.00,,SCT019,0.01,86.00,VWS V14.00,2013-06-01 17:10:00,
2013-06-01 13:15:00,79.4,75.5,29.95,ESE,109,8.0,10.0,88,0.00,,SCT019,0.01,62.00,VWS V14.00,2013-06-01 17:15:00,
2013-06-01 13:20:00,78.8,74.9,29.95,East,99,5.0,10.0,88,0.00,,SCT019,0.01,56.00,VWS V14.00,2013-06-01 17:20:00,
2013-06-01 13:25:00,78.5,75.0,29.95,ESE,107,9.0,9.0,89,0.00,,SCT019,0.01,62.00,VWS V14.00,2013-06-01 17:25:00,
2013-06-01 13:30:00,78.2,74.7,29.95,ESE,110,7.0,12.0,89,0.00,,SCT019,0.01,40.00,VWS V14.00,2013-06-01 17:30:00,
2013-06-01 13:35:00,78.0,74.5,29.95,ESE,107,6.0,9.0,89,0.00,,SCT019,0.01,21.00,VWS V14.00,2013-06-01 17:35:00,
2013-06-01 13:40:00,77.9,74.4,29.96,ESE,104,4.0,10.0,89,0.00,,BKN039,0.01,16.00,VWS V14.00,2013-06-01 17:40:00,
2013-06-01 13:45:00,77.5,74.0,29.95,ESE,109,13.0,14.0,89,0.00,,BKN039,0.01,18.00,VWS V14.00,2013-06-01 17:45:00,
2013-06-01 13:50:00,77.1,73.6,29.95,ESE,105,9.0,13.0,89,0.00,,BKN039,0.02,18.00,VWS V14.00,2013-06-01 17:50:00,
2013-06-01 13:55:00,76.6,73.4,29.95,ESE,111,10.0,10.0,90,0.00,,BKN039,0.02,16.00,VWS V14.00,2013-06-01 17:55:00,
2013-06-01 14:00:00,76.3,73.2,29.94,ESE,121,12.0,15.0,90,0.00,,BKN039,0.02,14.00,VWS V14.00,2013-06-01 18:00:00,
2013-06-01 14:05:00,75.8,72.7,29.94,East,94,10.0,18.0,90,0.00,,BKN039,0.02,11.00,VWS V14.00,2013-06-01 18:05:00,
2013-06-01 14:10:00,75.7,72.6,29.94,East,90,9.0,15.0,90,0.00,,BKN039,0.02,7.00,VWS V14.00,2013-06-01 18:10:00,
2013-06-01 14:15:00,75.6,72.5,29.94,ENE,73,11.0,14.0,90,0.00,,BKN039,0.02,0.00,VWS V14.00,2013-06-01 18:15:00,
2013-06-01 14:20:00,75.3,72.2,29.95,ENE,65,9.0,10.0,90,0.00,,BKN039,0.02,0.00,VWS V14.00,2013-06-01 18:20:00,
2013-06-01 14:25:00,75.1,72.0,29.95,ENE,65,9.0,13.0,90,0.00,,BKN039,0.02,0.00,VWS V14.00,2013-06-01 18:25:00,
2013-06-01 14:31:00,74.8,71.7,29.95,NE,42,8.0,8.0,90,0.00,,BKN039,0.02,0.00,VWS V14.00,2013-06-01 18:31:00,
2013-06-01 14:35:00,74.7,71.6,29.94,NNE,30,2.0,5.0,90,0.00,,BKN039,0.02,0.00,VWS V14.00,2013-06-01 18:35:00,
2013-06-01 14:41:00,74.7,71.6,29.95,NNE,24,1.0,6.0,90,0.00,,BKN039,0.02,0.00,VWS V14.00,2013-06-01 18:41:00,
2013-06-01 14:46:00,74.9,71.8,29.95,NNE,23,3.0,4.0,90,0.00,,BKN039,0.02,0.00,VWS V14.00,2013-06-01 18:46:00,
2013-06-01 14:51:00,75.1,72.0,29.96,ESE,123,7.0,11.0,90,0.00,,OVC017,0.02,0.00,VWS V14.00,2013-06-01 18:51:00,
2013-06-01 14:56:00,74.7,71.6,29.95,South,189,14.0,14.0,90,0.00,,OVC017,0.02,0.00,VWS V14.00,2013-06-01 18:56:00,
2013-06-01 15:02:00,74.5,71.4,29.95,South,182,0.0,5.0,90,0.00,,OVC017,0.02,0.00,VWS V14.00,2013-06-01 19:02:00,
2013-06-01 15:07:00,74.4,71.3,29.95,South,182,2.0,3.0,90,0.00,,OVC017,0.02,0.00,VWS V14.00,2013-06-01 19:07:00,
2013-06-01 15:12:00,74.5,71.4,29.95,South,175,3.0,4.0,90,0.00,,OVC017,0.02,0.00,VWS V14.00,2013-06-01 19:12:00,
2013-06-01 15:17:00,74.7,71.6,29.95,SSE,159,9.0,9.0,90,0.00,,OVC017,0.02,0.00,VWS V14.00,2013-06-01 19:17:00,
2013-06-01 15:22:00,74.9,72.1,29.95,SSE,157,4.0,6.0,91,0.00,,OVC017,0.02,0.00,VWS V14.00,2013-06-01 19:22:00,
2013-06-01 15:27:00,75.0,72.2,29.95,SSE,147,3.0,5.0,91,0.00,,OVC017,0.02,0.00,VWS V14.00,2013-06-01 19:27:00,
2013-06-01 15:32:00,75.1,72.0,29.94,SE,138,4.0,7.0,90,0.00,,OVC017,0.02,0.00,VWS V14.00,2013-06-01 19:32:00,
2013-06-01 15:37:00,75.1,72.0,29.94,SSE,150,5.0,7.0,90,0.00,,OVC017,0.02,0.00,VWS V14.00,2013-06-01 19:37:00,
2013-06-01 15:42:00,75.0,72.2,29.94,SSE,151,3.0,6.0,91,0.00,,OVC050,0.02,0.00,VWS V14.00,2013-06-01 19:42:00,
2013-06-01 15:47:00,74.9,72.1,29.94,SSE,155,5.0,7.0,91,0.00,,OVC050,0.02,0.00,VWS V14.00,2013-06-01 19:47:00,
2013-06-01 15:52:00,74.8,71.7,29.94,SSE,155,2.0,5.0,90,0.00,,OVC050,0.02,0.00,VWS V14.00,2013-06-01 19:52:00,
2013-06-01 15:57:00,74.8,72.0,29.94,SSE,155,3.0,5.0,91,0.00,,OVC050,0.02,0.00,VWS V14.00,2013-06-01 19:57:00,
2013-06-01 16:02:00,74.8,71.7,29.94,SSE,152,4.0,5.0,90,0.00,,OVC050,0.02,0.00,VWS V14.00,2013-06-01 20:02:00,
2013-06-01 16:07:00,74.7,71.6,29.94,SSE,152,1.0,7.0,90,0.00,,OVC050,0.02,0.00,VWS V14.00,2013-06-01 20:07:00,
2013-06-01 16:12:00,74.7,71.6,29.94,SSE,151,4.0,6.0,90,0.00,,OVC050,0.02,0.00,VWS V14.00,2013-06-01 20:12:00,
2013-06-01 16:17:00,74.6,71.5,29.94,SSE,150,4.0,7.0,90,0.00,,OVC050,0.02,0.00,VWS V14.00,2013-06-01 20:17:00,
2013-06-01 16:22:00,74.6,71.5,29.93,SE,146,3.0,6.0,90,0.00,,OVC050,0.02,0.00,VWS V14.00,2013-06-01 20:22:00,
2013-06-01 16:27:00,74.7,71.6,29.94,SE,146,3.0,5.0,90,0.00,,OVC050,0.02,0.00,VWS V14.00,2013-06-01 20:27:00,
2013-06-01 16:32:00,74.8,71.7,29.93,SE,146,0.0,4.0,90,0.00,,OVC050,0.02,0.00,VWS V14.00,2013-06-01 20:32:00,
2013-06-01 16:37:00,74.8,71.7,29.93,SE,146,4.0,4.0,90,0.00,,OVC060,0.02,0.00,VWS V14.00,2013-06-01 20:37:00,
2013-06-01 16:42:00,75.0,72.2,29.93,SE,146,3.0,4.0,91,0.00,,OVC060,0.02,0.00,VWS V14.00,2013-06-01 20:42:00,
2013-06-01 16:47:00,75.0,72.2,29.94,SE,146,0.0,3.0,91,0.00,,OVC060,0.02,0.00,VWS V14.00,2013-06-01 20:47:00,
2013-06-01 16:52:00,75.1,72.3,29.94,SE,146,0.0,4.0,91,0.00,,OVC060,0.02,0.00,VWS V14.00,2013-06-01 20:52:00,
2013-06-01 16:57:00,75.0,72.2,29.94,SE,146,2.0,3.0,91,0.00,,OVC060,0.02,0.00,VWS V14.00,2013-06-01 20:57:00,
2013-06-01 17:02:00,75.1,72.3,29.94,SE,146,3.0,4.0,91,0.00,,OVC060,0.02,0.00,VWS V14.00,2013-06-01 21:02:00,
2013-06-01 17:07:00,74.9,72.1,29.94,SE,146,0.0,4.0,91,0.00,,OVC060,0.02,0.00,VWS V14.00,2013-06-01 21:07:00,
2013-06-01 17:12:00,74.8,72.0,29.94,SE,146,4.0,5.0,91,0.00,,OVC060,0.02,0.00,VWS V14.00,2013-06-01 21:12:00,
2013-06-01 17:17:00,74.7,71.9,29.93,SE,146,6.0,6.0,91,0.00,,OVC060,0.02,0.00,VWS V14.00,2013-06-01 21:17:00,
2013-06-01 17:22:00,74.7,71.9,29.93,SE,146,0.0,0.0,91,0.00,,OVC060,0.02,0.00,VWS V14.00,2013-06-01 21:22:00,
2013-06-01 17:27:00,74.7,71.9,29.92,SE,146,1.0,5.0,91,0.00,,OVC060,0.02,0.00,VWS V14.00,2013-06-01 21:27:00,
2013-06-01 17:32:00,74.8,72.0,29.92,SE,146,3.0,5.0,91,0.00,,OVC060,0.02,0.00,VWS V14.00,2013-06-01 21:32:00,
2013-06-01 17:37:00,74.8,72.0,29.92,SSE,147,3.0,7.0,91,0.00,,RA,0.02,0.00,VWS V14.00,2013-06-01 21:37:00,
2013-06-01 17:42:00,74.9,72.1,29.93,SSE,147,2.0,4.0,91,0.00,,RA,0.02,0.00,VWS V14.00,2013-06-01 21:42:00,
2013-06-01 17:47:00,75.0,72.2,29.93,SSE,147,2.0,5.0,91,0.00,,RA,0.02,0.00,VWS V14.00,2013-06-01 21:47:00,
2013-06-01 17:52:00,75.1,72.3,29.92,SSE,147,2.0,4.0,91,0.00,,RA,0.02,0.00,VWS V14.00,2013-06-01 21:52:00,
2013-06-01 17:57:00,75.2,72.4,29.93,SSE,147,4.0,4.0,91,0.00,,RA,0.02,0.00,VWS V14.00,2013-06-01 21:57:00,
2013-06-01 18:02:00,75.2,72.4,29.94,SSE,147,4.0,4.0,91,0.00,,RA,0.02,0.00,VWS V14.00,2013-06-01 22:02:00,
2013-06-01 18:07:00,75.2,72.4,29.94,SSE,147,4.0,4.0,91,0.00,,RA,0.02,0.00,VWS V14.00,2013-06-01 22:07:00,
2013-06-01 18:12:00,75.2,72.4,29.94,SSE,147,3.0,4.0,91,0.00,,RA,0.02,0.00,VWS V14.00,2013-06-01 22:12:00,
2013-06-01 18:17:00,75.3,72.5,29.95,SSE,148,0.0,4.0,91,0.00,,RA,0.02,0.00,VWS V14.00,2013-06-01 22:17:00,
2013-06-01 18:22:00,75.4,72.6,29.95,SSE,150,3.0,3.0,91,0.00,,RA,0.02,0.00,VWS V14.00,2013-06-01 22:22:00,
2013-06-01 18:27:00,75.5,72.7,29.95,SSE,150,0.0,0.0,91,0.00,,RA,0.02,0.00,VWS V14.00,2013-06-01 22:27:00,
2013-06-01 18:32:00,75.5,72.7,29.95,SSE,150,0.0,0.0,91,0.00,,RA,0.02,0.00,VWS V14.00,2013-06-01 22:32:00,
2013-06-01 18:37:00,75.5,72.7,29.95,SSE,150,0.0,0.0,91,0.00,,RA,0.02,0.00,VWS V14.00,2013-06-01 22:37:00,
2013-06-01 18:42:00,75.5,72.7,29.95,SSE,150,0.0,0.0,91,0.00,,RA,0.02,0.00,VWS V14.00,2013-06-01 22:42:00,
2013-06-01 18:47:00,75.5,72.7,29.94,SSE,150,0.0,0.0,91,0.00,,RA,0.02,0.00,VWS V14.00,2013-06-01 22:47:00,
2013-06-01 18:52:00,75.4,72.6,29.94,SSE,150,0.0,0.0,91,0.00,,RA,0.02,0.00,VWS V14.00,2013-06-01 22:52:00,
2013-06-01 18:57:00,75.3,72.5,29.94,SE,132,0.0,0.0,91,0.00,,RA,0.02,0.00,VWS V14.00,2013-06-01 22:57:00,
2013-06-01 19:02:00,75.3,72.5,29.94,SE,132,0.0,3.0,91,0.00,,RA,0.02,0.00,VWS V14.00,2013-06-01 23:02:00,
2013-06-01 19:07:00,75.3,72.5,29.94,SE,132,3.0,3.0,91,0.00,,RA,0.02,0.00,VWS V14.00,2013-06-01 23:07:00,
2013-06-01 19:12:00,75.3,72.5,29.94,SE,132,0.0,0.0,91,0.00,,RA,0.02,5.00,VWS V14.00,2013-06-01 23:12:00,
2013-06-01 19:17:00,75.3,72.5,29.94,SE,134,2.0,3.0,91,0.00,,RA,0.02,5.00,VWS V14.00,2013-06-01 23:17:00,
2013-06-01 19:22:00,75.3,72.5,29.94,SSE,154,2.0,5.0,91,0.00,,RA,0.02,0.00,VWS V14.00,2013-06-01 23:22:00,
2013-06-01 19:27:00,75.1,72.3,29.94,SW,229,6.0,7.0,91,0.00,,RA,0.02,0.00,VWS V14.00,2013-06-01 23:27:00,
2013-06-01 19:32:00,74.8,72.0,29.93,WSW,242,4.0,4.0,91,0.00,,RA,0.02,0.00,VWS V14.00,2013-06-01 23:32:00,
2013-06-01 19:37:00,74.6,71.8,29.93,WSW,242,1.0,4.0,91,0.00,,RA,0.02,0.00,VWS V14.00,2013-06-01 23:37:00,
2013-06-01 19:42:00,74.5,71.7,29.94,WSW,242,5.0,5.0,91,0.00,,RA,0.02,0.00,VWS V14.00,2013-06-01 23:42:00,
2013-06-01 19:47:00,74.3,71.5,29.94,WSW,242,5.0,5.0,91,0.00,,RA,0.02,0.00,VWS V14.00,2013-06-01 23:47:00,
2013-06-01 19:52:00,74.1,71.3,29.94,WSW,242,0.0,0.0,91,0.00,,RA,0.02,0.00,VWS V14.00,2013-06-01 23:52:00,
2013-06-01 19:57:00,73.9,71.1,29.94,WSW,242,0.0,0.0,91,0.00,,RA,0.02,0.00,VWS V14.00,2013-06-01 23:57:00,
2013-06-01 20:02:00,73.8,71.0,29.95,WSW,242,0.0,0.0,91,0.00,,RA,0.02,0.00,VWS V14.00,2013-06-02 00:02:00,
2013-06-01 20:07:00,73.7,70.9,29.95,WSW,242,0.0,0.0,91,0.00,,RA,0.02,0.00,VWS V14.00,2013-06-02 00:07:00,
2013-06-01 20:12:00,73.6,70.8,29.95,WSW,242,0.0,0.0,91,0.00,,OVC095,0.02,0.00,VWS V14.00,2013-06-02 00:12:00,
2013-06-01 20:18:00,73.5,70.7,29.95,WSW,242,0.0,0.0,91,0.00,,OVC095,0.02,0.00,VWS V14.00,2013-06-02 00:18:00,
2013-06-01 20:23:00,73.5,70.7,29.95,WSW,242,0.0,0.0,91,0.00,,OVC095,0.02,0.00,VWS V14.00,2013-06-02 00:23:00,
2013-06-01 20:28:00,73.5,70.7,29.95,WSW,242,0.0,0.0,91,0.00,,OVC095,0.02,0.00,VWS V14.00,2013-06-02 00:28:00,
2013-06-01 20:33:00,73.6,70.8,29.95,WSW,242,0.0,0.0,91,0.00,,OVC095,0.02,0.00,VWS V14.00,2013-06-02 00:33:00,
2013-06-01 20:38:00,73.6,70.8,29.95,WSW,242,3.0,3.0,91,0.00,,OVC095,0.02,0.00,VWS V14.00,2013-06-02 00:38:00,
2013-06-01 20:43:00,73.4,70.6,29.95,WSW,246,5.0,7.0,91,0.00,,OVC095,0.02,0.00,VWS V14.00,2013-06-02 00:43:00,
2013-06-01 20:48:00,73.3,70.5,29.95,WSW,246,0.0,3.0,91,0.00,,OVC095,0.02,0.00,VWS V14.00,2013-06-02 00:48:00,
2013-06-01 20:52:00,73.3,70.5,29.95,WSW,246,0.0,0.0,91,0.00,,OVC095,0.02,0.00,VWS V14.00,2013-06-02 00:52:00,
2013-06-01 20:57:00,73.3,70.5,29.96,WSW,246,0.0,0.0,91,0.00,,OVC095,0.02,0.00,VWS V14.00,2013-06-02 00:57:00,
2013-06-01 21:02:00,73.3,70.5,29.95,WSW,246,0.0,0.0,91,0.00,,OVC095,0.02,0.00,VWS V14.00,2013-06-02 01:02:00,
2013-06-01 21:08:00,73.3,70.5,29.95,WSW,246,0.0,3.0,91,0.00,,OVC095,0.02,0.00,VWS V14.00,2013-06-02 01:08:00,
2013-06-01 21:13:00,73.4,70.6,29.95,WSW,246,0.0,0.0,91,0.00,,OVC095,0.02,0.00,VWS V14.00,2013-06-02 01:13:00,
2013-06-01 21:18:00,73.3,70.5,29.95,WSW,246,0.0,0.0,91,0.00,,OVC095,0.02,0.00,VWS V14.00,2013-06-02 01:18:00,
2013-06-01 21:23:00,73.4,70.6,29.95,WSW,246,0.0,0.0,91,0.00,,OVC095,0.02,0.00,VWS V14.00,2013-06-02 01:23:00,
2013-06-01 21:28:00,73.4,70.6,29.96,WSW,246,0.0,0.0,91,0.00,,OVC095,0.02,0.00,VWS V14.00,2013-06-02 01:28:00,
2013-06-01 21:33:00,73.4,70.6,29.96,WSW,246,0.0,0.0,91,0.00,,OVC095,0.02,0.00,VWS V14.00,2013-06-02 01:33:00,
2013-06-01 21:38:00,73.5,70.7,29.96,WSW,246,0.0,0.0,91,0.00,,SCT0060,0.02,0.00,VWS V14.00,2013-06-02 01:38:00,
2013-06-01 21:43:00,73.6,70.8,29.96,WSW,246,0.0,0.0,91,0.00,,SCT0060,0.02,0.00,VWS V14.00,2013-06-02 01:43:00,
2013-06-01 21:48:00,73.6,70.8,29.95,WSW,246,0.0,0.0,91,0.00,,SCT0060,0.02,0.00,VWS V14.00,2013-06-02 01:48:00,
2013-06-01 21:53:00,73.5,70.7,29.95,WSW,246,0.0,0.0,91,0.00,,SCT0060,0.02,0.00,VWS V14.00,2013-06-02 01:53:00,
2013-06-01 21:58:00,73.5,70.7,29.95,WSW,246,0.0,0.0,91,0.00,,SCT0060,0.02,0.00,VWS V14.00,2013-06-02 01:58:00,
2013-06-01 22:03:00,73.5,70.7,29.95,WSW,246,0.0,0.0,91,0.00,,SCT0060,0.02,0.00,VWS V14.00,2013-06-02 02:03:00,
2013-06-01 22:08:00,73.6,70.8,29.95,WSW,246,0.0,0.0,91,0.00,,SCT0060,0.02,0.00,VWS V14.00,2013-06-02 02:08:00,
2013-06-01 22:13:00,73.7,70.9,29.96,WSW,246,0.0,0.0,91,0.00,,SCT0060,0.02,0.00,VWS V14.00,2013-06-02 02:13:00,
2013-06-01 22:18:00,73.8,71.0,29.96,WSW,246,0.0,2.0,91,0.00,,SCT0060,0.02,0.00,VWS V14.00,2013-06-02 02:18:00,
2013-06-01 22:23:00,73.7,70.9,29.97,WSW,246,1.0,1.0,91,0.00,,SCT0060,0.02,0.00,VWS V14.00,2013-06-02 02:23:00,
2013-06-01 22:28:00,73.6,70.8,29.97,WSW,246,0.0,0.0,91,0.00,,SCT0060,0.02,0.00,VWS V14.00,2013-06-02 02:28:00,
2013-06-01 22:33:00,73.5,70.7,29.96,WSW,246,0.0,0.0,91,0.00,,SCT0060,0.02,0.00,VWS V14.00,2013-06-02 02:33:00,
2013-06-01 22:38:00,73.4,70.6,29.97,WSW,246,0.0,0.0,91,0.00,,FEW0060,0.02,0.00,VWS V14.00,2013-06-02 02:38:00,
2013-06-01 22:43:00,73.4,70.6,29.97,WSW,246,0.0,0.0,91,0.00,,FEW0060,0.02,0.00,VWS V14.00,2013-06-02 02:43:00,
2013-06-01 22:48:00,73.3,70.5,29.96,WSW,246,0.0,0.0,91,0.00,,FEW0060,0.02,0.00,VWS V14.00,2013-06-02 02:48:00,
2013-06-01 22:53:00,73.4,70.6,29.96,WSW,246,1.0,1.0,91,0.00,,FEW0060,0.02,0.00,VWS V14.00,2013-06-02 02:53:00,
2013-06-01 22:58:00,73.3,70.5,29.96,WSW,246,0.0,0.0,91,0.00,,FEW0060,0.02,0.00,VWS V14.00,2013-06-02 02:58:00,
2013-06-01 23:03:00,73.4,70.6,29.96,WSW,246,0.0,0.0,91,0.00,,FEW0060,0.02,0.00,VWS V14.00,2013-06-02 03:03:00,
2013-06-01 23:08:00,73.6,70.8,29.96,WSW,246,0.0,0.0,91,0.00,,FEW0060,0.02,0.00,VWS V14.00,2013-06-02 03:08:00,
2013-06-01 23:13:00,73.6,70.8,29.96,WSW,246,0.0,0.0,91,0.00,,FEW0060,0.02,0.00,VWS V14.00,2013-06-02 03:13:00,
2013-06-01 23:18:00,73.6,70.8,29.96,WSW,246,0.0,0.0,91,0.00,,FEW0060,0.02,0.00,VWS V14.00,2013-06-02 03:18:00,
2013-06-01 23:23:00,73.6,70.8,29.96,WSW,246,0.0,0.0,91,0.00,,FEW0060,0.02,0.00,VWS V14.00,2013-06-02 03:23:00,
2013-06-01 23:28:00,73.5,70.7,29.96,WSW,246,0.0,0.0,91,0.00,,FEW0060,0.02,0.00,VWS V14.00,2013-06-02 03:28:00,
2013-06-01 23:33:00,73.4,70.6,29.96,WSW,246,0.0,0.0,91,0.00,,FEW0060,0.02,0.00,VWS V14.00,2013-06-02 03:33:00,
2013-06-01 23:38:00,73.5,70.7,29.96,WSW,246,2.0,3.0,91,0.00,,FEW0060,0.02,0.00,VWS V14.00,2013-06-02 03:38:00,
2013-06-01 23:43:00,73.6,70.8,29.97,WSW,246,2.0,2.0,91,0.00,,FEW0060,0.02,0.00,VWS V14.00,2013-06-02 03:43:00,
2013-06-01 23:48:00,73.6,70.8,29.97,WSW,246,0.0,0.0,91,0.00,,FEW0060,0.02,0.00,VWS V14.00,2013-06-02 03:48:00,
2013-06-01 23:53:00,73.5,70.7,29.97,WSW,246,0.0,0.0,91,0.00,,FEW0060,0.02,0.00,VWS V14.00,2013-06-02 03:53:00,
2013-06-01 23:58:00,73.5,70.7,29.96,WSW,246,0.0,0.0,91,0.00,,FEW0060,0.02,0.00,VWS V14.00,2013-06-02 03:58:00,